<?xml version="1.0" encoding="UTF-8" standalone="no" ?>
<gpx xmlns="http://www.topografix.com/GPX/1/1" xmlns:xsi="http://www.w3.org/2001/XMLSchema-instance" xsi:schemaLocation="http://www.topografix.com/GPX/1/1 http://www.topografix.com/GPX/1/1/gpx.xsd" version="1.1" creator="VisuGPX - https://www.visugpx.com">
  <metadata>
    <name>RHODIA - RAFFIN - FOURVIERE - OBSERVANCE</name>
    <desc><![CDATA[footing de 42mn, 200m  de denivelé. par les escaliers Nicolas De Lange.]]></desc>
  </metadata>
  <trk>
    <name><![CDATA[Lyon 09 Course à pied]]></name>
    <trkseg>
      <trkpt lat="45.77037" lon="4.8071">
        <ele>177.7</ele>
        <time>2015-06-14T07:05:46.000Z</time>
      </trkpt>
      <trkpt lat="45.77043" lon="4.80707">
        <ele>177.8</ele>
        <time>2015-06-14T07:05:50.000Z</time>
      </trkpt>
      <trkpt lat="45.77062" lon="4.80712">
        <ele>177.8</ele>
        <time>2015-06-14T07:05:55.000Z</time>
      </trkpt>
      <trkpt lat="45.77081" lon="4.80725">
        <ele>177.2</ele>
        <time>2015-06-14T07:05:58.000Z</time>
      </trkpt>
      <trkpt lat="45.77086" lon="4.80729">
        <ele>177.2</ele>
        <time>2015-06-14T07:05:59.000Z</time>
      </trkpt>
      <trkpt lat="45.77091" lon="4.80733">
        <ele>177.3</ele>
        <time>2015-06-14T07:06:00.000Z</time>
      </trkpt>
      <trkpt lat="45.77096" lon="4.80745">
        <ele>177.5</ele>
        <time>2015-06-14T07:06:03.000Z</time>
      </trkpt>
      <trkpt lat="45.77097" lon="4.80756">
        <ele>177.5</ele>
        <time>2015-06-14T07:06:05.000Z</time>
      </trkpt>
      <trkpt lat="45.77096" lon="4.80764">
        <ele>177.6</ele>
        <time>2015-06-14T07:06:07.000Z</time>
      </trkpt>
      <trkpt lat="45.77104" lon="4.80778">
        <ele>177.3</ele>
        <time>2015-06-14T07:06:11.000Z</time>
      </trkpt>
      <trkpt lat="45.77112" lon="4.80787">
        <ele>177.3</ele>
        <time>2015-06-14T07:06:14.000Z</time>
      </trkpt>
      <trkpt lat="45.77125" lon="4.80793">
        <ele>177</ele>
        <time>2015-06-14T07:06:20.000Z</time>
      </trkpt>
      <trkpt lat="45.7714" lon="4.80799">
        <ele>176.2</ele>
        <time>2015-06-14T07:06:27.000Z</time>
      </trkpt>
      <trkpt lat="45.77142" lon="4.80801">
        <ele>176</ele>
        <time>2015-06-14T07:06:28.000Z</time>
      </trkpt>
      <trkpt lat="45.77145" lon="4.80816">
        <ele>176.5</ele>
        <time>2015-06-14T07:06:33.000Z</time>
      </trkpt>
      <trkpt lat="45.77144" lon="4.80817">
        <ele>176.6</ele>
        <time>2015-06-14T07:06:34.000Z</time>
      </trkpt>
      <trkpt lat="45.77144" lon="4.80818">
        <ele>176.7</ele>
        <time>2015-06-14T07:06:35.000Z</time>
      </trkpt>
      <trkpt lat="45.77139" lon="4.80827">
        <ele>177.5</ele>
        <time>2015-06-14T07:06:40.000Z</time>
      </trkpt>
      <trkpt lat="45.77137" lon="4.80835">
        <ele>178.4</ele>
        <time>2015-06-14T07:06:44.000Z</time>
      </trkpt>
      <trkpt lat="45.77135" lon="4.80836">
        <ele>178.8</ele>
        <time>2015-06-14T07:06:45.000Z</time>
      </trkpt>
      <trkpt lat="45.7713" lon="4.80844">
        <ele>180.4</ele>
        <time>2015-06-14T07:06:50.000Z</time>
      </trkpt>
      <trkpt lat="45.77124" lon="4.80856">
        <ele>182.7</ele>
        <time>2015-06-14T07:06:57.000Z</time>
      </trkpt>
      <trkpt lat="45.77123" lon="4.80857">
        <ele>183</ele>
        <time>2015-06-14T07:06:58.000Z</time>
      </trkpt>
      <trkpt lat="45.77122" lon="4.80859">
        <ele>183.2</ele>
        <time>2015-06-14T07:06:59.000Z</time>
      </trkpt>
      <trkpt lat="45.77119" lon="4.80865">
        <ele>184.3</ele>
        <time>2015-06-14T07:07:04.000Z</time>
      </trkpt>
      <trkpt lat="45.77117" lon="4.80871">
        <ele>185.1</ele>
        <time>2015-06-14T07:07:10.000Z</time>
      </trkpt>
      <trkpt lat="45.77116" lon="4.80872">
        <ele>185.3</ele>
        <time>2015-06-14T07:07:11.000Z</time>
      </trkpt>
      <trkpt lat="45.77116" lon="4.80873">
        <ele>185.5</ele>
        <time>2015-06-14T07:07:12.000Z</time>
      </trkpt>
      <trkpt lat="45.77114" lon="4.8088">
        <ele>186.5</ele>
        <time>2015-06-14T07:07:15.000Z</time>
      </trkpt>
      <trkpt lat="45.77122" lon="4.80898">
        <ele>188.5</ele>
        <time>2015-06-14T07:07:22.000Z</time>
      </trkpt>
      <trkpt lat="45.77124" lon="4.80905">
        <ele>189.4</ele>
        <time>2015-06-14T07:07:25.000Z</time>
      </trkpt>
      <trkpt lat="45.77133" lon="4.8091">
        <ele>189.9</ele>
        <time>2015-06-14T07:07:33.000Z</time>
      </trkpt>
      <trkpt lat="45.77145" lon="4.80914">
        <ele>190.8</ele>
        <time>2015-06-14T07:07:41.000Z</time>
      </trkpt>
      <trkpt lat="45.77154" lon="4.80917">
        <ele>192.1</ele>
        <time>2015-06-14T07:07:47.000Z</time>
      </trkpt>
      <trkpt lat="45.77156" lon="4.80917">
        <ele>192.3</ele>
        <time>2015-06-14T07:07:48.000Z</time>
      </trkpt>
      <trkpt lat="45.77163" lon="4.80919">
        <ele>193.5</ele>
        <time>2015-06-14T07:07:53.000Z</time>
      </trkpt>
      <trkpt lat="45.77173" lon="4.80921">
        <ele>194.5</ele>
        <time>2015-06-14T07:07:59.000Z</time>
      </trkpt>
      <trkpt lat="45.77185" lon="4.80921">
        <ele>195.2</ele>
        <time>2015-06-14T07:08:07.000Z</time>
      </trkpt>
      <trkpt lat="45.77196" lon="4.80919">
        <ele>195.8</ele>
        <time>2015-06-14T07:08:14.000Z</time>
      </trkpt>
      <trkpt lat="45.77202" lon="4.80918">
        <ele>196.1</ele>
        <time>2015-06-14T07:08:18.000Z</time>
      </trkpt>
      <trkpt lat="45.77208" lon="4.80919">
        <ele>196.7</ele>
        <time>2015-06-14T07:08:22.000Z</time>
      </trkpt>
      <trkpt lat="45.77217" lon="4.80916">
        <ele>197.2</ele>
        <time>2015-06-14T07:08:28.000Z</time>
      </trkpt>
      <trkpt lat="45.77228" lon="4.80914">
        <ele>197.1</ele>
        <time>2015-06-14T07:08:35.000Z</time>
      </trkpt>
      <trkpt lat="45.77239" lon="4.80911">
        <ele>196.7</ele>
        <time>2015-06-14T07:08:42.000Z</time>
      </trkpt>
      <trkpt lat="45.77248" lon="4.80909">
        <ele>196.4</ele>
        <time>2015-06-14T07:08:48.000Z</time>
      </trkpt>
      <trkpt lat="45.77255" lon="4.80912">
        <ele>195.5</ele>
        <time>2015-06-14T07:08:53.000Z</time>
      </trkpt>
      <trkpt lat="45.7726" lon="4.80916">
        <ele>195.4</ele>
        <time>2015-06-14T07:08:57.000Z</time>
      </trkpt>
      <trkpt lat="45.77265" lon="4.80926">
        <ele>195.3</ele>
        <time>2015-06-14T07:09:03.000Z</time>
      </trkpt>
      <trkpt lat="45.77265" lon="4.8093">
        <ele>195.8</ele>
        <time>2015-06-14T07:09:05.000Z</time>
      </trkpt>
      <trkpt lat="45.77264" lon="4.80942">
        <ele>198.2</ele>
        <time>2015-06-14T07:09:11.000Z</time>
      </trkpt>
      <trkpt lat="45.77263" lon="4.80947">
        <ele>198.2</ele>
        <time>2015-06-14T07:09:13.000Z</time>
      </trkpt>
      <trkpt lat="45.77259" lon="4.80954">
        <ele>197.7</ele>
        <time>2015-06-14T07:09:18.000Z</time>
      </trkpt>
      <trkpt lat="45.77254" lon="4.80958">
        <ele>198.4</ele>
        <time>2015-06-14T07:09:22.000Z</time>
      </trkpt>
      <trkpt lat="45.77246" lon="4.80964">
        <ele>199.7</ele>
        <time>2015-06-14T07:09:29.000Z</time>
      </trkpt>
      <trkpt lat="45.77236" lon="4.80969">
        <ele>201.1</ele>
        <time>2015-06-14T07:09:36.000Z</time>
      </trkpt>
      <trkpt lat="45.77225" lon="4.80972">
        <ele>203.5</ele>
        <time>2015-06-14T07:09:43.000Z</time>
      </trkpt>
      <trkpt lat="45.77218" lon="4.80972">
        <ele>204.2</ele>
        <time>2015-06-14T07:09:46.000Z</time>
      </trkpt>
      <trkpt lat="45.7721" lon="4.80973">
        <ele>204.8</ele>
        <time>2015-06-14T07:09:51.000Z</time>
      </trkpt>
      <trkpt lat="45.77201" lon="4.80971">
        <ele>205.3</ele>
        <time>2015-06-14T07:09:57.000Z</time>
      </trkpt>
      <trkpt lat="45.7719" lon="4.80968">
        <ele>205.7</ele>
        <time>2015-06-14T07:10:04.000Z</time>
      </trkpt>
      <trkpt lat="45.7718" lon="4.80967">
        <ele>206.2</ele>
        <time>2015-06-14T07:10:10.000Z</time>
      </trkpt>
      <trkpt lat="45.77167" lon="4.80965">
        <ele>206.5</ele>
        <time>2015-06-14T07:10:17.000Z</time>
      </trkpt>
      <trkpt lat="45.77154" lon="4.80963">
        <ele>207.1</ele>
        <time>2015-06-14T07:10:25.000Z</time>
      </trkpt>
      <trkpt lat="45.77142" lon="4.80962">
        <ele>207.8</ele>
        <time>2015-06-14T07:10:32.000Z</time>
      </trkpt>
      <trkpt lat="45.7713" lon="4.80961">
        <ele>208.9</ele>
        <time>2015-06-14T07:10:40.000Z</time>
      </trkpt>
      <trkpt lat="45.77124" lon="4.80959">
        <ele>209.2</ele>
        <time>2015-06-14T07:10:44.000Z</time>
      </trkpt>
      <trkpt lat="45.77111" lon="4.80957">
        <ele>210.4</ele>
        <time>2015-06-14T07:10:52.000Z</time>
      </trkpt>
      <trkpt lat="45.77103" lon="4.80957">
        <ele>211.1</ele>
        <time>2015-06-14T07:10:57.000Z</time>
      </trkpt>
      <trkpt lat="45.77091" lon="4.80955">
        <ele>212</ele>
        <time>2015-06-14T07:11:04.000Z</time>
      </trkpt>
      <trkpt lat="45.77087" lon="4.80954">
        <ele>212.3</ele>
        <time>2015-06-14T07:11:06.000Z</time>
      </trkpt>
      <trkpt lat="45.77076" lon="4.80952">
        <ele>213</ele>
        <time>2015-06-14T07:11:12.000Z</time>
      </trkpt>
      <trkpt lat="45.77069" lon="4.80952">
        <ele>213.6</ele>
        <time>2015-06-14T07:11:16.000Z</time>
      </trkpt>
      <trkpt lat="45.77054" lon="4.8095">
        <ele>214.5</ele>
        <time>2015-06-14T07:11:24.000Z</time>
      </trkpt>
      <trkpt lat="45.77049" lon="4.80947">
        <ele>214.9</ele>
        <time>2015-06-14T07:11:27.000Z</time>
      </trkpt>
      <trkpt lat="45.77037" lon="4.80939">
        <ele>214.8</ele>
        <time>2015-06-14T07:11:34.000Z</time>
      </trkpt>
      <trkpt lat="45.77033" lon="4.80938">
        <ele>215.1</ele>
        <time>2015-06-14T07:11:36.000Z</time>
      </trkpt>
      <trkpt lat="45.77019" lon="4.8093">
        <ele>215.2</ele>
        <time>2015-06-14T07:11:44.000Z</time>
      </trkpt>
      <trkpt lat="45.7701" lon="4.80925">
        <ele>215.5</ele>
        <time>2015-06-14T07:11:49.000Z</time>
      </trkpt>
      <trkpt lat="45.77002" lon="4.80925">
        <ele>216.9</ele>
        <time>2015-06-14T07:11:54.000Z</time>
      </trkpt>
      <trkpt lat="45.76997" lon="4.80935">
        <ele>219.1</ele>
        <time>2015-06-14T07:11:59.000Z</time>
      </trkpt>
      <trkpt lat="45.76996" lon="4.80937">
        <ele>219.5</ele>
        <time>2015-06-14T07:12:00.000Z</time>
      </trkpt>
      <trkpt lat="45.77" lon="4.80948">
        <ele>220.2</ele>
        <time>2015-06-14T07:12:05.000Z</time>
      </trkpt>
      <trkpt lat="45.77006" lon="4.80959">
        <ele>220.3</ele>
        <time>2015-06-14T07:12:11.000Z</time>
      </trkpt>
      <trkpt lat="45.77012" lon="4.80969">
        <ele>220.1</ele>
        <time>2015-06-14T07:12:16.000Z</time>
      </trkpt>
      <trkpt lat="45.77013" lon="4.80981">
        <ele>220.1</ele>
        <time>2015-06-14T07:12:21.000Z</time>
      </trkpt>
      <trkpt lat="45.77013" lon="4.80988">
        <ele>220.1</ele>
        <time>2015-06-14T07:12:24.000Z</time>
      </trkpt>
      <trkpt lat="45.77009" lon="4.80998">
        <ele>221</ele>
        <time>2015-06-14T07:12:29.000Z</time>
      </trkpt>
      <trkpt lat="45.76995" lon="4.81006">
        <ele>222.2</ele>
        <time>2015-06-14T07:12:38.000Z</time>
      </trkpt>
      <trkpt lat="45.76983" lon="4.81007">
        <ele>223.4</ele>
        <time>2015-06-14T07:12:45.000Z</time>
      </trkpt>
      <trkpt lat="45.76971" lon="4.81009">
        <ele>224.4</ele>
        <time>2015-06-14T07:12:52.000Z</time>
      </trkpt>
      <trkpt lat="45.76962" lon="4.81011">
        <ele>224.8</ele>
        <time>2015-06-14T07:12:58.000Z</time>
      </trkpt>
      <trkpt lat="45.76954" lon="4.81014">
        <ele>225.2</ele>
        <time>2015-06-14T07:13:03.000Z</time>
      </trkpt>
      <trkpt lat="45.76943" lon="4.81015">
        <ele>226.1</ele>
        <time>2015-06-14T07:13:09.000Z</time>
      </trkpt>
      <trkpt lat="45.76937" lon="4.81015">
        <ele>226.6</ele>
        <time>2015-06-14T07:13:12.000Z</time>
      </trkpt>
      <trkpt lat="45.7693" lon="4.81006">
        <ele>227.7</ele>
        <time>2015-06-14T07:13:18.000Z</time>
      </trkpt>
      <trkpt lat="45.76929" lon="4.81004">
        <ele>227.9</ele>
        <time>2015-06-14T07:13:19.000Z</time>
      </trkpt>
      <trkpt lat="45.76921" lon="4.80997">
        <ele>228.8</ele>
        <time>2015-06-14T07:13:24.000Z</time>
      </trkpt>
      <trkpt lat="45.76913" lon="4.80986">
        <ele>229.8</ele>
        <time>2015-06-14T07:13:30.000Z</time>
      </trkpt>
      <trkpt lat="45.76898" lon="4.80977">
        <ele>231.3</ele>
        <time>2015-06-14T07:13:38.000Z</time>
      </trkpt>
      <trkpt lat="45.76896" lon="4.80977">
        <ele>231.4</ele>
        <time>2015-06-14T07:13:39.000Z</time>
      </trkpt>
      <trkpt lat="45.76888" lon="4.80974">
        <ele>232</ele>
        <time>2015-06-14T07:13:44.000Z</time>
      </trkpt>
      <trkpt lat="45.76886" lon="4.80974">
        <ele>232.2</ele>
        <time>2015-06-14T07:13:45.000Z</time>
      </trkpt>
      <trkpt lat="45.76881" lon="4.80974">
        <ele>232.5</ele>
        <time>2015-06-14T07:13:48.000Z</time>
      </trkpt>
      <trkpt lat="45.76872" lon="4.80972">
        <ele>233.2</ele>
        <time>2015-06-14T07:13:53.000Z</time>
      </trkpt>
      <trkpt lat="45.7687" lon="4.80971">
        <ele>233.4</ele>
        <time>2015-06-14T07:13:54.000Z</time>
      </trkpt>
      <trkpt lat="45.76869" lon="4.80971">
        <ele>233.5</ele>
        <time>2015-06-14T07:13:55.000Z</time>
      </trkpt>
      <trkpt lat="45.76862" lon="4.80971">
        <ele>233.9</ele>
        <time>2015-06-14T07:13:59.000Z</time>
      </trkpt>
      <trkpt lat="45.76859" lon="4.8097">
        <ele>234.1</ele>
        <time>2015-06-14T07:14:01.000Z</time>
      </trkpt>
      <trkpt lat="45.76852" lon="4.80975">
        <ele>234.3</ele>
        <time>2015-06-14T07:14:06.000Z</time>
      </trkpt>
      <trkpt lat="45.76845" lon="4.80979">
        <ele>234.3</ele>
        <time>2015-06-14T07:14:12.000Z</time>
      </trkpt>
      <trkpt lat="45.76839" lon="4.80981">
        <ele>234.3</ele>
        <time>2015-06-14T07:14:16.000Z</time>
      </trkpt>
      <trkpt lat="45.76837" lon="4.80984">
        <ele>234.2</ele>
        <time>2015-06-14T07:14:18.000Z</time>
      </trkpt>
      <trkpt lat="45.76833" lon="4.80987">
        <ele>233.8</ele>
        <time>2015-06-14T07:14:21.000Z</time>
      </trkpt>
      <trkpt lat="45.76827" lon="4.80994">
        <ele>233.5</ele>
        <time>2015-06-14T07:14:25.000Z</time>
      </trkpt>
      <trkpt lat="45.76816" lon="4.81">
        <ele>233.9</ele>
        <time>2015-06-14T07:14:32.000Z</time>
      </trkpt>
      <trkpt lat="45.76814" lon="4.81">
        <ele>234</ele>
        <time>2015-06-14T07:14:33.000Z</time>
      </trkpt>
      <trkpt lat="45.76807" lon="4.81001">
        <ele>234.5</ele>
        <time>2015-06-14T07:14:37.000Z</time>
      </trkpt>
      <trkpt lat="45.768" lon="4.81004">
        <ele>233.2</ele>
        <time>2015-06-14T07:14:41.000Z</time>
      </trkpt>
      <trkpt lat="45.76784" lon="4.81012">
        <ele>230.9</ele>
        <time>2015-06-14T07:14:48.000Z</time>
      </trkpt>
      <trkpt lat="45.76778" lon="4.81017">
        <ele>229.6</ele>
        <time>2015-06-14T07:14:52.000Z</time>
      </trkpt>
      <trkpt lat="45.76765" lon="4.81026">
        <ele>226.6</ele>
        <time>2015-06-14T07:14:58.000Z</time>
      </trkpt>
      <trkpt lat="45.76756" lon="4.81031">
        <ele>225.1</ele>
        <time>2015-06-14T07:15:03.000Z</time>
      </trkpt>
      <trkpt lat="45.76748" lon="4.81036">
        <ele>223.2</ele>
        <time>2015-06-14T07:15:07.000Z</time>
      </trkpt>
      <trkpt lat="45.76735" lon="4.81044">
        <ele>221</ele>
        <time>2015-06-14T07:15:12.000Z</time>
      </trkpt>
      <trkpt lat="45.76724" lon="4.81053">
        <ele>220.2</ele>
        <time>2015-06-14T07:15:17.000Z</time>
      </trkpt>
      <trkpt lat="45.76712" lon="4.81067">
        <ele>218.7</ele>
        <time>2015-06-14T07:15:26.000Z</time>
      </trkpt>
      <trkpt lat="45.76704" lon="4.81079">
        <ele>217.8</ele>
        <time>2015-06-14T07:15:32.000Z</time>
      </trkpt>
      <trkpt lat="45.76697" lon="4.81089">
        <ele>217.2</ele>
        <time>2015-06-14T07:15:37.000Z</time>
      </trkpt>
      <trkpt lat="45.76688" lon="4.81098">
        <ele>216.6</ele>
        <time>2015-06-14T07:15:42.000Z</time>
      </trkpt>
      <trkpt lat="45.76677" lon="4.81111">
        <ele>216.9</ele>
        <time>2015-06-14T07:15:49.000Z</time>
      </trkpt>
      <trkpt lat="45.76668" lon="4.81126">
        <ele>215.9</ele>
        <time>2015-06-14T07:15:55.000Z</time>
      </trkpt>
      <trkpt lat="45.76665" lon="4.81131">
        <ele>215.5</ele>
        <time>2015-06-14T07:15:57.000Z</time>
      </trkpt>
      <trkpt lat="45.76654" lon="4.81145">
        <ele>216.7</ele>
        <time>2015-06-14T07:16:03.000Z</time>
      </trkpt>
      <trkpt lat="45.76648" lon="4.81155">
        <ele>218.2</ele>
        <time>2015-06-14T07:16:07.000Z</time>
      </trkpt>
      <trkpt lat="45.76648" lon="4.81157">
        <ele>218.3</ele>
        <time>2015-06-14T07:16:08.000Z</time>
      </trkpt>
      <trkpt lat="45.76643" lon="4.81176">
        <ele>220.2</ele>
        <time>2015-06-14T07:16:15.000Z</time>
      </trkpt>
      <trkpt lat="45.7664" lon="4.81186">
        <ele>221.7</ele>
        <time>2015-06-14T07:16:19.000Z</time>
      </trkpt>
      <trkpt lat="45.76638" lon="4.81203">
        <ele>222.2</ele>
        <time>2015-06-14T07:16:25.000Z</time>
      </trkpt>
      <trkpt lat="45.76632" lon="4.8122">
        <ele>222.7</ele>
        <time>2015-06-14T07:16:31.000Z</time>
      </trkpt>
      <trkpt lat="45.76626" lon="4.81229">
        <ele>222.4</ele>
        <time>2015-06-14T07:16:35.000Z</time>
      </trkpt>
      <trkpt lat="45.76623" lon="4.81229">
        <ele>222.8</ele>
        <time>2015-06-14T07:16:36.000Z</time>
      </trkpt>
      <trkpt lat="45.76613" lon="4.81235">
        <ele>223.8</ele>
        <time>2015-06-14T07:16:41.000Z</time>
      </trkpt>
      <trkpt lat="45.76605" lon="4.81243">
        <ele>224.8</ele>
        <time>2015-06-14T07:16:46.000Z</time>
      </trkpt>
      <trkpt lat="45.76599" lon="4.81255">
        <ele>224.7</ele>
        <time>2015-06-14T07:16:51.000Z</time>
      </trkpt>
      <trkpt lat="45.76589" lon="4.81276">
        <ele>223.6</ele>
        <time>2015-06-14T07:16:59.000Z</time>
      </trkpt>
      <trkpt lat="45.76582" lon="4.81289">
        <ele>223.9</ele>
        <time>2015-06-14T07:17:04.000Z</time>
      </trkpt>
      <trkpt lat="45.76573" lon="4.81302">
        <ele>224.8</ele>
        <time>2015-06-14T07:17:10.000Z</time>
      </trkpt>
      <trkpt lat="45.76565" lon="4.81315">
        <ele>225.4</ele>
        <time>2015-06-14T07:17:16.000Z</time>
      </trkpt>
      <trkpt lat="45.76556" lon="4.81326">
        <ele>226.2</ele>
        <time>2015-06-14T07:17:22.000Z</time>
      </trkpt>
      <trkpt lat="45.76547" lon="4.8134">
        <ele>226.1</ele>
        <time>2015-06-14T07:17:28.000Z</time>
      </trkpt>
      <trkpt lat="45.76546" lon="4.81342">
        <ele>226</ele>
        <time>2015-06-14T07:17:29.000Z</time>
      </trkpt>
      <trkpt lat="45.7654" lon="4.81358">
        <ele>225.3</ele>
        <time>2015-06-14T07:17:35.000Z</time>
      </trkpt>
      <trkpt lat="45.76536" lon="4.81374">
        <ele>224.9</ele>
        <time>2015-06-14T07:17:40.000Z</time>
      </trkpt>
      <trkpt lat="45.76535" lon="4.81392">
        <ele>224.2</ele>
        <time>2015-06-14T07:17:45.000Z</time>
      </trkpt>
      <trkpt lat="45.76536" lon="4.81408">
        <ele>223.1</ele>
        <time>2015-06-14T07:17:50.000Z</time>
      </trkpt>
      <trkpt lat="45.76539" lon="4.8143">
        <ele>222.2</ele>
        <time>2015-06-14T07:17:57.000Z</time>
      </trkpt>
      <trkpt lat="45.76542" lon="4.81439">
        <ele>222</ele>
        <time>2015-06-14T07:18:00.000Z</time>
      </trkpt>
      <trkpt lat="45.7655" lon="4.81456">
        <ele>221.3</ele>
        <time>2015-06-14T07:18:06.000Z</time>
      </trkpt>
      <trkpt lat="45.76556" lon="4.81465">
        <ele>220.3</ele>
        <time>2015-06-14T07:18:10.000Z</time>
      </trkpt>
      <trkpt lat="45.76563" lon="4.81468">
        <ele>219</ele>
        <time>2015-06-14T07:18:13.000Z</time>
      </trkpt>
      <trkpt lat="45.7658" lon="4.81489">
        <ele>217.4</ele>
        <time>2015-06-14T07:18:23.000Z</time>
      </trkpt>
      <trkpt lat="45.76589" lon="4.81505">
        <ele>216.4</ele>
        <time>2015-06-14T07:18:29.000Z</time>
      </trkpt>
      <trkpt lat="45.76594" lon="4.81519">
        <ele>214.4</ele>
        <time>2015-06-14T07:18:33.000Z</time>
      </trkpt>
      <trkpt lat="45.76598" lon="4.81537">
        <ele>211.8</ele>
        <time>2015-06-14T07:18:38.000Z</time>
      </trkpt>
      <trkpt lat="45.76599" lon="4.81547">
        <ele>210.4</ele>
        <time>2015-06-14T07:18:41.000Z</time>
      </trkpt>
      <trkpt lat="45.76595" lon="4.81572">
        <ele>210.7</ele>
        <time>2015-06-14T07:18:48.000Z</time>
      </trkpt>
      <trkpt lat="45.76593" lon="4.8159">
        <ele>210.6</ele>
        <time>2015-06-14T07:18:53.000Z</time>
      </trkpt>
      <trkpt lat="45.76591" lon="4.81606">
        <ele>210.8</ele>
        <time>2015-06-14T07:18:57.000Z</time>
      </trkpt>
      <trkpt lat="45.76588" lon="4.81623">
        <ele>211.8</ele>
        <time>2015-06-14T07:19:02.000Z</time>
      </trkpt>
      <trkpt lat="45.76586" lon="4.81633">
        <ele>212.7</ele>
        <time>2015-06-14T07:19:05.000Z</time>
      </trkpt>
      <trkpt lat="45.76581" lon="4.81652">
        <ele>213.4</ele>
        <time>2015-06-14T07:19:11.000Z</time>
      </trkpt>
      <trkpt lat="45.76577" lon="4.81671">
        <ele>212.3</ele>
        <time>2015-06-14T07:19:17.000Z</time>
      </trkpt>
      <trkpt lat="45.76572" lon="4.81693">
        <ele>210.1</ele>
        <time>2015-06-14T07:19:24.000Z</time>
      </trkpt>
      <trkpt lat="45.76567" lon="4.81706">
        <ele>210.2</ele>
        <time>2015-06-14T07:19:29.000Z</time>
      </trkpt>
      <trkpt lat="45.76559" lon="4.81719">
        <ele>211.8</ele>
        <time>2015-06-14T07:19:34.000Z</time>
      </trkpt>
      <trkpt lat="45.76553" lon="4.81732">
        <ele>211.9</ele>
        <time>2015-06-14T07:19:39.000Z</time>
      </trkpt>
      <trkpt lat="45.76545" lon="4.81743">
        <ele>211.7</ele>
        <time>2015-06-14T07:19:44.000Z</time>
      </trkpt>
      <trkpt lat="45.7654" lon="4.81754">
        <ele>210.9</ele>
        <time>2015-06-14T07:19:48.000Z</time>
      </trkpt>
      <trkpt lat="45.76537" lon="4.81768">
        <ele>209.4</ele>
        <time>2015-06-14T07:19:52.000Z</time>
      </trkpt>
      <trkpt lat="45.76531" lon="4.81783">
        <ele>210.1</ele>
        <time>2015-06-14T07:19:58.000Z</time>
      </trkpt>
      <trkpt lat="45.76529" lon="4.81785">
        <ele>210.9</ele>
        <time>2015-06-14T07:19:59.000Z</time>
      </trkpt>
      <trkpt lat="45.76524" lon="4.81803">
        <ele>211.5</ele>
        <time>2015-06-14T07:20:06.000Z</time>
      </trkpt>
      <trkpt lat="45.76522" lon="4.81817">
        <ele>211.7</ele>
        <time>2015-06-14T07:20:11.000Z</time>
      </trkpt>
      <trkpt lat="45.76523" lon="4.81829">
        <ele>210.6</ele>
        <time>2015-06-14T07:20:16.000Z</time>
      </trkpt>
      <trkpt lat="45.76521" lon="4.81846">
        <ele>210.5</ele>
        <time>2015-06-14T07:20:22.000Z</time>
      </trkpt>
      <trkpt lat="45.7652" lon="4.81862">
        <ele>210.7</ele>
        <time>2015-06-14T07:20:27.000Z</time>
      </trkpt>
      <trkpt lat="45.76519" lon="4.81877">
        <ele>210.7</ele>
        <time>2015-06-14T07:20:32.000Z</time>
      </trkpt>
      <trkpt lat="45.76518" lon="4.8189">
        <ele>210.7</ele>
        <time>2015-06-14T07:20:36.000Z</time>
      </trkpt>
      <trkpt lat="45.76514" lon="4.81908">
        <ele>212.4</ele>
        <time>2015-06-14T07:20:41.000Z</time>
      </trkpt>
      <trkpt lat="45.76514" lon="4.81911">
        <ele>212.6</ele>
        <time>2015-06-14T07:20:42.000Z</time>
      </trkpt>
      <trkpt lat="45.76511" lon="4.81928">
        <ele>212.1</ele>
        <time>2015-06-14T07:20:47.000Z</time>
      </trkpt>
      <trkpt lat="45.76505" lon="4.81946">
        <ele>211.5</ele>
        <time>2015-06-14T07:20:52.000Z</time>
      </trkpt>
      <trkpt lat="45.765" lon="4.81964">
        <ele>210.3</ele>
        <time>2015-06-14T07:20:57.000Z</time>
      </trkpt>
      <trkpt lat="45.76498" lon="4.81978">
        <ele>209.3</ele>
        <time>2015-06-14T07:21:01.000Z</time>
      </trkpt>
      <trkpt lat="45.76496" lon="4.81989">
        <ele>209.3</ele>
        <time>2015-06-14T07:21:04.000Z</time>
      </trkpt>
      <trkpt lat="45.76495" lon="4.81996">
        <ele>209.2</ele>
        <time>2015-06-14T07:21:06.000Z</time>
      </trkpt>
      <trkpt lat="45.76496" lon="4.82011">
        <ele>210</ele>
        <time>2015-06-14T07:21:11.000Z</time>
      </trkpt>
      <trkpt lat="45.76501" lon="4.82025">
        <ele>210.6</ele>
        <time>2015-06-14T07:21:17.000Z</time>
      </trkpt>
      <trkpt lat="45.76508" lon="4.82038">
        <ele>211.5</ele>
        <time>2015-06-14T07:21:23.000Z</time>
      </trkpt>
      <trkpt lat="45.76516" lon="4.82051">
        <ele>212.8</ele>
        <time>2015-06-14T07:21:30.000Z</time>
      </trkpt>
      <trkpt lat="45.76523" lon="4.82061">
        <ele>213.7</ele>
        <time>2015-06-14T07:21:36.000Z</time>
      </trkpt>
      <trkpt lat="45.76529" lon="4.82074">
        <ele>215.2</ele>
        <time>2015-06-14T07:21:42.000Z</time>
      </trkpt>
      <trkpt lat="45.76529" lon="4.82076">
        <ele>215.5</ele>
        <time>2015-06-14T07:21:43.000Z</time>
      </trkpt>
      <trkpt lat="45.76529" lon="4.82078">
        <ele>215.9</ele>
        <time>2015-06-14T07:21:44.000Z</time>
      </trkpt>
      <trkpt lat="45.76538" lon="4.82092">
        <ele>217.6</ele>
        <time>2015-06-14T07:21:51.000Z</time>
      </trkpt>
      <trkpt lat="45.76546" lon="4.82103">
        <ele>218.3</ele>
        <time>2015-06-14T07:21:57.000Z</time>
      </trkpt>
      <trkpt lat="45.76556" lon="4.82113">
        <ele>218.4</ele>
        <time>2015-06-14T07:22:03.000Z</time>
      </trkpt>
      <trkpt lat="45.76566" lon="4.82119">
        <ele>218.9</ele>
        <time>2015-06-14T07:22:08.000Z</time>
      </trkpt>
      <trkpt lat="45.76568" lon="4.82119">
        <ele>218.9</ele>
        <time>2015-06-14T07:22:09.000Z</time>
      </trkpt>
      <trkpt lat="45.76574" lon="4.82122">
        <ele>219.1</ele>
        <time>2015-06-14T07:22:14.000Z</time>
      </trkpt>
      <trkpt lat="45.76592" lon="4.82125">
        <ele>217.7</ele>
        <time>2015-06-14T07:22:21.000Z</time>
      </trkpt>
      <trkpt lat="45.76605" lon="4.82127">
        <ele>216.4</ele>
        <time>2015-06-14T07:22:27.000Z</time>
      </trkpt>
      <trkpt lat="45.76617" lon="4.82133">
        <ele>215.6</ele>
        <time>2015-06-14T07:22:32.000Z</time>
      </trkpt>
      <trkpt lat="45.76618" lon="4.82135">
        <ele>215.6</ele>
        <time>2015-06-14T07:22:33.000Z</time>
      </trkpt>
      <trkpt lat="45.76626" lon="4.82146">
        <ele>216</ele>
        <time>2015-06-14T07:22:38.000Z</time>
      </trkpt>
      <trkpt lat="45.76632" lon="4.82163">
        <ele>216.9</ele>
        <time>2015-06-14T07:22:44.000Z</time>
      </trkpt>
      <trkpt lat="45.76631" lon="4.82183">
        <ele>218</ele>
        <time>2015-06-14T07:22:50.000Z</time>
      </trkpt>
      <trkpt lat="45.7663" lon="4.822">
        <ele>218.2</ele>
        <time>2015-06-14T07:22:55.000Z</time>
      </trkpt>
      <trkpt lat="45.76625" lon="4.82216">
        <ele>219</ele>
        <time>2015-06-14T07:23:00.000Z</time>
      </trkpt>
      <trkpt lat="45.76624" lon="4.82219">
        <ele>219</ele>
        <time>2015-06-14T07:23:01.000Z</time>
      </trkpt>
      <trkpt lat="45.76625" lon="4.82238">
        <ele>217.8</ele>
        <time>2015-06-14T07:23:07.000Z</time>
      </trkpt>
      <trkpt lat="45.76625" lon="4.82258">
        <ele>216.8</ele>
        <time>2015-06-14T07:23:13.000Z</time>
      </trkpt>
      <trkpt lat="45.76626" lon="4.82269">
        <ele>216.1</ele>
        <time>2015-06-14T07:23:16.000Z</time>
      </trkpt>
      <trkpt lat="45.76626" lon="4.82286">
        <ele>215.6</ele>
        <time>2015-06-14T07:23:21.000Z</time>
      </trkpt>
      <trkpt lat="45.76625" lon="4.82298">
        <ele>215.7</ele>
        <time>2015-06-14T07:23:25.000Z</time>
      </trkpt>
      <trkpt lat="45.76623" lon="4.82309">
        <ele>215.8</ele>
        <time>2015-06-14T07:23:30.000Z</time>
      </trkpt>
      <trkpt lat="45.76623" lon="4.82314">
        <ele>215.8</ele>
        <time>2015-06-14T07:23:32.000Z</time>
      </trkpt>
      <trkpt lat="45.76618" lon="4.82327">
        <ele>216.6</ele>
        <time>2015-06-14T07:23:36.000Z</time>
      </trkpt>
      <trkpt lat="45.76618" lon="4.82339">
        <ele>215.9</ele>
        <time>2015-06-14T07:23:41.000Z</time>
      </trkpt>
      <trkpt lat="45.76616" lon="4.82348">
        <ele>215.8</ele>
        <time>2015-06-14T07:23:44.000Z</time>
      </trkpt>
      <trkpt lat="45.7661" lon="4.82371">
        <ele>215.4</ele>
        <time>2015-06-14T07:23:51.000Z</time>
      </trkpt>
      <trkpt lat="45.76612" lon="4.82375">
        <ele>214.9</ele>
        <time>2015-06-14T07:23:52.000Z</time>
      </trkpt>
      <trkpt lat="45.76617" lon="4.82397">
        <ele>213.2</ele>
        <time>2015-06-14T07:23:58.000Z</time>
      </trkpt>
      <trkpt lat="45.76619" lon="4.82406">
        <ele>212.9</ele>
        <time>2015-06-14T07:24:01.000Z</time>
      </trkpt>
      <trkpt lat="45.76618" lon="4.82417">
        <ele>213.4</ele>
        <time>2015-06-14T07:24:05.000Z</time>
      </trkpt>
      <trkpt lat="45.76616" lon="4.82436">
        <ele>213.2</ele>
        <time>2015-06-14T07:24:11.000Z</time>
      </trkpt>
      <trkpt lat="45.76612" lon="4.8245">
        <ele>213.4</ele>
        <time>2015-06-14T07:24:15.000Z</time>
      </trkpt>
      <trkpt lat="45.76612" lon="4.82453">
        <ele>213.2</ele>
        <time>2015-06-14T07:24:16.000Z</time>
      </trkpt>
      <trkpt lat="45.76612" lon="4.82455">
        <ele>212.9</ele>
        <time>2015-06-14T07:24:19.000Z</time>
      </trkpt>
      <trkpt lat="45.7661" lon="4.82454">
        <ele>213.9</ele>
        <time>2015-06-14T07:24:22.000Z</time>
      </trkpt>
      <trkpt lat="45.76612" lon="4.8245">
        <ele>213.3</ele>
        <time>2015-06-14T07:24:28.000Z</time>
      </trkpt>
      <trkpt lat="45.76612" lon="4.82447">
        <ele>213.5</ele>
        <time>2015-06-14T07:24:30.000Z</time>
      </trkpt>
      <trkpt lat="45.76604" lon="4.82444">
        <ele>216.4</ele>
        <time>2015-06-14T07:24:35.000Z</time>
      </trkpt>
      <trkpt lat="45.766" lon="4.82444">
        <ele>217.5</ele>
        <time>2015-06-14T07:24:37.000Z</time>
      </trkpt>
      <trkpt lat="45.76594" lon="4.8244">
        <ele>219.6</ele>
        <time>2015-06-14T07:24:43.000Z</time>
      </trkpt>
      <trkpt lat="45.7659" lon="4.82435">
        <ele>220.4</ele>
        <time>2015-06-14T07:24:49.000Z</time>
      </trkpt>
      <trkpt lat="45.76589" lon="4.82433">
        <ele>220.6</ele>
        <time>2015-06-14T07:24:51.000Z</time>
      </trkpt>
      <trkpt lat="45.76585" lon="4.82429">
        <ele>221.3</ele>
        <time>2015-06-14T07:24:56.000Z</time>
      </trkpt>
      <trkpt lat="45.76584" lon="4.82427">
        <ele>221.7</ele>
        <time>2015-06-14T07:24:58.000Z</time>
      </trkpt>
      <trkpt lat="45.76582" lon="4.82425">
        <ele>222</ele>
        <time>2015-06-14T07:25:00.000Z</time>
      </trkpt>
      <trkpt lat="45.76578" lon="4.82419">
        <ele>222.6</ele>
        <time>2015-06-14T07:25:05.000Z</time>
      </trkpt>
      <trkpt lat="45.76574" lon="4.82414">
        <ele>223.6</ele>
        <time>2015-06-14T07:25:10.000Z</time>
      </trkpt>
      <trkpt lat="45.76572" lon="4.82411">
        <ele>224.4</ele>
        <time>2015-06-14T07:25:16.000Z</time>
      </trkpt>
      <trkpt lat="45.76572" lon="4.82407">
        <ele>224.5</ele>
        <time>2015-06-14T07:25:21.000Z</time>
      </trkpt>
      <trkpt lat="45.76568" lon="4.82404">
        <ele>225.9</ele>
        <time>2015-06-14T07:25:26.000Z</time>
      </trkpt>
      <trkpt lat="45.76566" lon="4.82402">
        <ele>226.6</ele>
        <time>2015-06-14T07:25:29.000Z</time>
      </trkpt>
      <trkpt lat="45.76563" lon="4.82399">
        <ele>227.6</ele>
        <time>2015-06-14T07:25:33.000Z</time>
      </trkpt>
      <trkpt lat="45.76563" lon="4.82397">
        <ele>228.1</ele>
        <time>2015-06-14T07:25:35.000Z</time>
      </trkpt>
      <trkpt lat="45.76561" lon="4.82394">
        <ele>228.6</ele>
        <time>2015-06-14T07:25:39.000Z</time>
      </trkpt>
      <trkpt lat="45.76557" lon="4.8239">
        <ele>230.3</ele>
        <time>2015-06-14T07:25:45.000Z</time>
      </trkpt>
      <trkpt lat="45.76555" lon="4.82387">
        <ele>231.4</ele>
        <time>2015-06-14T07:25:50.000Z</time>
      </trkpt>
      <trkpt lat="45.76551" lon="4.82385">
        <ele>232.7</ele>
        <time>2015-06-14T07:25:54.000Z</time>
      </trkpt>
      <trkpt lat="45.76548" lon="4.82381">
        <ele>234.2</ele>
        <time>2015-06-14T07:26:04.000Z</time>
      </trkpt>
      <trkpt lat="45.76546" lon="4.8238">
        <ele>234.9</ele>
        <time>2015-06-14T07:26:07.000Z</time>
      </trkpt>
      <trkpt lat="45.76547" lon="4.82378">
        <ele>234.9</ele>
        <time>2015-06-14T07:26:13.000Z</time>
      </trkpt>
      <trkpt lat="45.76546" lon="4.82375">
        <ele>235.5</ele>
        <time>2015-06-14T07:26:15.000Z</time>
      </trkpt>
      <trkpt lat="45.76544" lon="4.82373">
        <ele>236.4</ele>
        <time>2015-06-14T07:26:18.000Z</time>
      </trkpt>
      <trkpt lat="45.76541" lon="4.82369">
        <ele>238</ele>
        <time>2015-06-14T07:26:26.000Z</time>
      </trkpt>
      <trkpt lat="45.76539" lon="4.8237">
        <ele>238.4</ele>
        <time>2015-06-14T07:26:28.000Z</time>
      </trkpt>
      <trkpt lat="45.76539" lon="4.82364">
        <ele>239.1</ele>
        <time>2015-06-14T07:26:35.000Z</time>
      </trkpt>
      <trkpt lat="45.76538" lon="4.82362">
        <ele>239.9</ele>
        <time>2015-06-14T07:26:39.000Z</time>
      </trkpt>
      <trkpt lat="45.76535" lon="4.8236">
        <ele>241.1</ele>
        <time>2015-06-14T07:26:44.000Z</time>
      </trkpt>
      <trkpt lat="45.76532" lon="4.82357">
        <ele>242.7</ele>
        <time>2015-06-14T07:26:50.000Z</time>
      </trkpt>
      <trkpt lat="45.76529" lon="4.82355">
        <ele>243.8</ele>
        <time>2015-06-14T07:26:56.000Z</time>
      </trkpt>
      <trkpt lat="45.76526" lon="4.82354">
        <ele>244.8</ele>
        <time>2015-06-14T07:27:00.000Z</time>
      </trkpt>
      <trkpt lat="45.76525" lon="4.82353">
        <ele>245.2</ele>
        <time>2015-06-14T07:27:01.000Z</time>
      </trkpt>
      <trkpt lat="45.76524" lon="4.82352">
        <ele>245.6</ele>
        <time>2015-06-14T07:27:02.000Z</time>
      </trkpt>
      <trkpt lat="45.76518" lon="4.82349">
        <ele>247.3</ele>
        <time>2015-06-14T07:27:07.000Z</time>
      </trkpt>
      <trkpt lat="45.76518" lon="4.82347">
        <ele>247.5</ele>
        <time>2015-06-14T07:27:09.000Z</time>
      </trkpt>
      <trkpt lat="45.76517" lon="4.82338">
        <ele>248.4</ele>
        <time>2015-06-14T07:27:17.000Z</time>
      </trkpt>
      <trkpt lat="45.76515" lon="4.82333">
        <ele>249.2</ele>
        <time>2015-06-14T07:27:22.000Z</time>
      </trkpt>
      <trkpt lat="45.76514" lon="4.82332">
        <ele>249.4</ele>
        <time>2015-06-14T07:27:23.000Z</time>
      </trkpt>
      <trkpt lat="45.76512" lon="4.82331">
        <ele>250.1</ele>
        <time>2015-06-14T07:27:26.000Z</time>
      </trkpt>
      <trkpt lat="45.76509" lon="4.82331">
        <ele>251.2</ele>
        <time>2015-06-14T07:27:28.000Z</time>
      </trkpt>
      <trkpt lat="45.76502" lon="4.82326">
        <ele>253.6</ele>
        <time>2015-06-14T07:27:35.000Z</time>
      </trkpt>
      <trkpt lat="45.76501" lon="4.82326">
        <ele>254</ele>
        <time>2015-06-14T07:27:36.000Z</time>
      </trkpt>
      <trkpt lat="45.76497" lon="4.82323">
        <ele>255.4</ele>
        <time>2015-06-14T07:27:41.000Z</time>
      </trkpt>
      <trkpt lat="45.76492" lon="4.82321">
        <ele>257.2</ele>
        <time>2015-06-14T07:27:46.000Z</time>
      </trkpt>
      <trkpt lat="45.76489" lon="4.82321">
        <ele>258.1</ele>
        <time>2015-06-14T07:27:49.000Z</time>
      </trkpt>
      <trkpt lat="45.76487" lon="4.8232">
        <ele>258.8</ele>
        <time>2015-06-14T07:27:53.000Z</time>
      </trkpt>
      <trkpt lat="45.76483" lon="4.82317">
        <ele>260.1</ele>
        <time>2015-06-14T07:27:59.000Z</time>
      </trkpt>
      <trkpt lat="45.76479" lon="4.82314">
        <ele>261.5</ele>
        <time>2015-06-14T07:28:05.000Z</time>
      </trkpt>
      <trkpt lat="45.76477" lon="4.82311">
        <ele>262.3</ele>
        <time>2015-06-14T07:28:09.000Z</time>
      </trkpt>
      <trkpt lat="45.76474" lon="4.82305">
        <ele>263.3</ele>
        <time>2015-06-14T07:28:16.000Z</time>
      </trkpt>
      <trkpt lat="45.76471" lon="4.82303">
        <ele>264.2</ele>
        <time>2015-06-14T07:28:22.000Z</time>
      </trkpt>
      <trkpt lat="45.76466" lon="4.82299">
        <ele>265.9</ele>
        <time>2015-06-14T07:28:29.000Z</time>
      </trkpt>
      <trkpt lat="45.76463" lon="4.82296">
        <ele>266.8</ele>
        <time>2015-06-14T07:28:35.000Z</time>
      </trkpt>
      <trkpt lat="45.7646" lon="4.82293">
        <ele>267.9</ele>
        <time>2015-06-14T07:28:42.000Z</time>
      </trkpt>
      <trkpt lat="45.76457" lon="4.82291">
        <ele>268.9</ele>
        <time>2015-06-14T07:28:47.000Z</time>
      </trkpt>
      <trkpt lat="45.76453" lon="4.82288">
        <ele>270.3</ele>
        <time>2015-06-14T07:28:54.000Z</time>
      </trkpt>
      <trkpt lat="45.7645" lon="4.82284">
        <ele>271.8</ele>
        <time>2015-06-14T07:29:00.000Z</time>
      </trkpt>
      <trkpt lat="45.76445" lon="4.82282">
        <ele>273.5</ele>
        <time>2015-06-14T07:29:06.000Z</time>
      </trkpt>
      <trkpt lat="45.76443" lon="4.82279">
        <ele>274.5</ele>
        <time>2015-06-14T07:29:12.000Z</time>
      </trkpt>
      <trkpt lat="45.7644" lon="4.82277">
        <ele>275.1</ele>
        <time>2015-06-14T07:29:17.000Z</time>
      </trkpt>
      <trkpt lat="45.76433" lon="4.82274">
        <ele>276.8</ele>
        <time>2015-06-14T07:29:29.000Z</time>
      </trkpt>
      <trkpt lat="45.76426" lon="4.82272">
        <ele>279.1</ele>
        <time>2015-06-14T07:29:37.000Z</time>
      </trkpt>
      <trkpt lat="45.76424" lon="4.82271">
        <ele>279.7</ele>
        <time>2015-06-14T07:29:39.000Z</time>
      </trkpt>
      <trkpt lat="45.76423" lon="4.82268">
        <ele>279.8</ele>
        <time>2015-06-14T07:29:43.000Z</time>
      </trkpt>
      <trkpt lat="45.76421" lon="4.82264">
        <ele>280.6</ele>
        <time>2015-06-14T07:29:48.000Z</time>
      </trkpt>
      <trkpt lat="45.7642" lon="4.82265">
        <ele>280.7</ele>
        <time>2015-06-14T07:29:50.000Z</time>
      </trkpt>
      <trkpt lat="45.7641" lon="4.82269">
        <ele>282.8</ele>
        <time>2015-06-14T07:29:56.000Z</time>
      </trkpt>
      <trkpt lat="45.76406" lon="4.8227">
        <ele>283.3</ele>
        <time>2015-06-14T07:29:58.000Z</time>
      </trkpt>
      <trkpt lat="45.76395" lon="4.82271">
        <ele>284.5</ele>
        <time>2015-06-14T07:30:04.000Z</time>
      </trkpt>
      <trkpt lat="45.76391" lon="4.82259">
        <ele>285.4</ele>
        <time>2015-06-14T07:30:08.000Z</time>
      </trkpt>
      <trkpt lat="45.7639" lon="4.82257">
        <ele>285.6</ele>
        <time>2015-06-14T07:30:09.000Z</time>
      </trkpt>
      <trkpt lat="45.76384" lon="4.82236">
        <ele>285.6</ele>
        <time>2015-06-14T07:30:17.000Z</time>
      </trkpt>
      <trkpt lat="45.76381" lon="4.82226">
        <ele>285.6</ele>
        <time>2015-06-14T07:30:21.000Z</time>
      </trkpt>
      <trkpt lat="45.76378" lon="4.82225">
        <ele>286</ele>
        <time>2015-06-14T07:30:22.000Z</time>
      </trkpt>
      <trkpt lat="45.76367" lon="4.82226">
        <ele>287.8</ele>
        <time>2015-06-14T07:30:27.000Z</time>
      </trkpt>
      <trkpt lat="45.76357" lon="4.82226">
        <ele>289</ele>
        <time>2015-06-14T07:30:32.000Z</time>
      </trkpt>
      <trkpt lat="45.76356" lon="4.82226">
        <ele>289</ele>
        <time>2015-06-14T07:30:33.000Z</time>
      </trkpt>
      <trkpt lat="45.76346" lon="4.82223">
        <ele>289.5</ele>
        <time>2015-06-14T07:30:38.000Z</time>
      </trkpt>
      <trkpt lat="45.76334" lon="4.82221">
        <ele>290</ele>
        <time>2015-06-14T07:30:44.000Z</time>
      </trkpt>
      <trkpt lat="45.76328" lon="4.82221">
        <ele>290</ele>
        <time>2015-06-14T07:30:47.000Z</time>
      </trkpt>
      <trkpt lat="45.76315" lon="4.82217">
        <ele>290</ele>
        <time>2015-06-14T07:30:53.000Z</time>
      </trkpt>
      <trkpt lat="45.76313" lon="4.82216">
        <ele>290</ele>
        <time>2015-06-14T07:30:54.000Z</time>
      </trkpt>
      <trkpt lat="45.76304" lon="4.82215">
        <ele>290.1</ele>
        <time>2015-06-14T07:30:59.000Z</time>
      </trkpt>
      <trkpt lat="45.76297" lon="4.82218">
        <ele>290.3</ele>
        <time>2015-06-14T07:31:03.000Z</time>
      </trkpt>
      <trkpt lat="45.76293" lon="4.82218">
        <ele>290.5</ele>
        <time>2015-06-14T07:31:05.000Z</time>
      </trkpt>
      <trkpt lat="45.7629" lon="4.8222">
        <ele>290.5</ele>
        <time>2015-06-14T07:31:07.000Z</time>
      </trkpt>
      <trkpt lat="45.7629" lon="4.82226">
        <ele>290.6</ele>
        <time>2015-06-14T07:31:10.000Z</time>
      </trkpt>
      <trkpt lat="45.76289" lon="4.82231">
        <ele>290.6</ele>
        <time>2015-06-14T07:31:12.000Z</time>
      </trkpt>
      <trkpt lat="45.7629" lon="4.82242">
        <ele>290.6</ele>
        <time>2015-06-14T07:31:17.000Z</time>
      </trkpt>
      <trkpt lat="45.76291" lon="4.82247">
        <ele>290.5</ele>
        <time>2015-06-14T07:31:20.000Z</time>
      </trkpt>
      <trkpt lat="45.7629" lon="4.82261">
        <ele>290.6</ele>
        <time>2015-06-14T07:31:25.000Z</time>
      </trkpt>
      <trkpt lat="45.76293" lon="4.82265">
        <ele>290.4</ele>
        <time>2015-06-14T07:31:27.000Z</time>
      </trkpt>
      <trkpt lat="45.76294" lon="4.82284">
        <ele>289.7</ele>
        <time>2015-06-14T07:31:34.000Z</time>
      </trkpt>
      <trkpt lat="45.76293" lon="4.82289">
        <ele>289.3</ele>
        <time>2015-06-14T07:31:36.000Z</time>
      </trkpt>
      <trkpt lat="45.76295" lon="4.82296">
        <ele>288.8</ele>
        <time>2015-06-14T07:31:39.000Z</time>
      </trkpt>
      <trkpt lat="45.76292" lon="4.82291">
        <ele>289.3</ele>
        <time>2015-06-14T07:31:44.000Z</time>
      </trkpt>
      <trkpt lat="45.76291" lon="4.8228">
        <ele>290.3</ele>
        <time>2015-06-14T07:31:49.000Z</time>
      </trkpt>
      <trkpt lat="45.76289" lon="4.8227">
        <ele>290.8</ele>
        <time>2015-06-14T07:31:53.000Z</time>
      </trkpt>
      <trkpt lat="45.76287" lon="4.82266">
        <ele>290.9</ele>
        <time>2015-06-14T07:31:55.000Z</time>
      </trkpt>
      <trkpt lat="45.76286" lon="4.82258">
        <ele>290.8</ele>
        <time>2015-06-14T07:31:58.000Z</time>
      </trkpt>
      <trkpt lat="45.76286" lon="4.82257">
        <ele>290.8</ele>
        <time>2015-06-14T07:31:59.000Z</time>
      </trkpt>
      <trkpt lat="45.76286" lon="4.82244">
        <ele>290.7</ele>
        <time>2015-06-14T07:32:05.000Z</time>
      </trkpt>
      <trkpt lat="45.76287" lon="4.82231">
        <ele>290.7</ele>
        <time>2015-06-14T07:32:10.000Z</time>
      </trkpt>
      <trkpt lat="45.76287" lon="4.82228">
        <ele>290.7</ele>
        <time>2015-06-14T07:32:11.000Z</time>
      </trkpt>
      <trkpt lat="45.76295" lon="4.82224">
        <ele>290.4</ele>
        <time>2015-06-14T07:32:15.000Z</time>
      </trkpt>
      <trkpt lat="45.76306" lon="4.82224">
        <ele>290</ele>
        <time>2015-06-14T07:32:20.000Z</time>
      </trkpt>
      <trkpt lat="45.76308" lon="4.82225">
        <ele>290</ele>
        <time>2015-06-14T07:32:21.000Z</time>
      </trkpt>
      <trkpt lat="45.76319" lon="4.82227">
        <ele>289.8</ele>
        <time>2015-06-14T07:32:26.000Z</time>
      </trkpt>
      <trkpt lat="45.76333" lon="4.82228">
        <ele>289.6</ele>
        <time>2015-06-14T07:32:32.000Z</time>
      </trkpt>
      <trkpt lat="45.76352" lon="4.82223">
        <ele>289.3</ele>
        <time>2015-06-14T07:32:41.000Z</time>
      </trkpt>
      <trkpt lat="45.76356" lon="4.82216">
        <ele>288.6</ele>
        <time>2015-06-14T07:32:44.000Z</time>
      </trkpt>
      <trkpt lat="45.76358" lon="4.82201">
        <ele>287.1</ele>
        <time>2015-06-14T07:32:49.000Z</time>
      </trkpt>
      <trkpt lat="45.76356" lon="4.82184">
        <ele>283.6</ele>
        <time>2015-06-14T07:32:54.000Z</time>
      </trkpt>
      <trkpt lat="45.7635" lon="4.82168">
        <ele>281.3</ele>
        <time>2015-06-14T07:32:59.000Z</time>
      </trkpt>
      <trkpt lat="45.76342" lon="4.82156">
        <ele>281.8</ele>
        <time>2015-06-14T07:33:04.000Z</time>
      </trkpt>
      <trkpt lat="45.76331" lon="4.82143">
        <ele>284.6</ele>
        <time>2015-06-14T07:33:10.000Z</time>
      </trkpt>
      <trkpt lat="45.76327" lon="4.82127">
        <ele>282.1</ele>
        <time>2015-06-14T07:33:15.000Z</time>
      </trkpt>
      <trkpt lat="45.76321" lon="4.82109">
        <ele>279.8</ele>
        <time>2015-06-14T07:33:21.000Z</time>
      </trkpt>
      <trkpt lat="45.76316" lon="4.82089">
        <ele>278.7</ele>
        <time>2015-06-14T07:33:27.000Z</time>
      </trkpt>
      <trkpt lat="45.76311" lon="4.8207">
        <ele>278.9</ele>
        <time>2015-06-14T07:33:33.000Z</time>
      </trkpt>
      <trkpt lat="45.76307" lon="4.82053">
        <ele>278.7</ele>
        <time>2015-06-14T07:33:38.000Z</time>
      </trkpt>
      <trkpt lat="45.76304" lon="4.82034">
        <ele>275.7</ele>
        <time>2015-06-14T07:33:44.000Z</time>
      </trkpt>
      <trkpt lat="45.763" lon="4.82022">
        <ele>273.9</ele>
        <time>2015-06-14T07:33:48.000Z</time>
      </trkpt>
      <trkpt lat="45.76297" lon="4.82005">
        <ele>272.1</ele>
        <time>2015-06-14T07:33:53.000Z</time>
      </trkpt>
      <trkpt lat="45.76299" lon="4.81987">
        <ele>270.8</ele>
        <time>2015-06-14T07:33:59.000Z</time>
      </trkpt>
      <trkpt lat="45.76302" lon="4.81972">
        <ele>270.2</ele>
        <time>2015-06-14T07:34:04.000Z</time>
      </trkpt>
      <trkpt lat="45.76308" lon="4.8195">
        <ele>268</ele>
        <time>2015-06-14T07:34:11.000Z</time>
      </trkpt>
      <trkpt lat="45.76313" lon="4.81929">
        <ele>267.6</ele>
        <time>2015-06-14T07:34:18.000Z</time>
      </trkpt>
      <trkpt lat="45.76319" lon="4.81912">
        <ele>268.6</ele>
        <time>2015-06-14T07:34:24.000Z</time>
      </trkpt>
      <trkpt lat="45.76327" lon="4.8188">
        <ele>271.3</ele>
        <time>2015-06-14T07:34:35.000Z</time>
      </trkpt>
      <trkpt lat="45.7633" lon="4.81865">
        <ele>273.2</ele>
        <time>2015-06-14T07:34:41.000Z</time>
      </trkpt>
      <trkpt lat="45.7633" lon="4.81853">
        <ele>274.3</ele>
        <time>2015-06-14T07:34:45.000Z</time>
      </trkpt>
      <trkpt lat="45.7633" lon="4.81844">
        <ele>275.2</ele>
        <time>2015-06-14T07:34:48.000Z</time>
      </trkpt>
      <trkpt lat="45.7633" lon="4.81832">
        <ele>275.9</ele>
        <time>2015-06-14T07:34:52.000Z</time>
      </trkpt>
      <trkpt lat="45.7633" lon="4.81809">
        <ele>276.8</ele>
        <time>2015-06-14T07:35:00.000Z</time>
      </trkpt>
      <trkpt lat="45.76329" lon="4.81804">
        <ele>277.2</ele>
        <time>2015-06-14T07:35:02.000Z</time>
      </trkpt>
      <trkpt lat="45.7633" lon="4.81788">
        <ele>277.6</ele>
        <time>2015-06-14T07:35:08.000Z</time>
      </trkpt>
      <trkpt lat="45.7633" lon="4.81776">
        <ele>278.2</ele>
        <time>2015-06-14T07:35:12.000Z</time>
      </trkpt>
      <trkpt lat="45.76331" lon="4.81762">
        <ele>279.1</ele>
        <time>2015-06-14T07:35:17.000Z</time>
      </trkpt>
      <trkpt lat="45.76331" lon="4.81759">
        <ele>279.4</ele>
        <time>2015-06-14T07:35:18.000Z</time>
      </trkpt>
      <trkpt lat="45.76332" lon="4.81745">
        <ele>280.5</ele>
        <time>2015-06-14T07:35:23.000Z</time>
      </trkpt>
      <trkpt lat="45.76331" lon="4.81728">
        <ele>281.2</ele>
        <time>2015-06-14T07:35:29.000Z</time>
      </trkpt>
      <trkpt lat="45.76331" lon="4.81726">
        <ele>281.3</ele>
        <time>2015-06-14T07:35:30.000Z</time>
      </trkpt>
      <trkpt lat="45.7633" lon="4.81712">
        <ele>281.8</ele>
        <time>2015-06-14T07:35:35.000Z</time>
      </trkpt>
      <trkpt lat="45.76328" lon="4.81708">
        <ele>282.1</ele>
        <time>2015-06-14T07:35:37.000Z</time>
      </trkpt>
      <trkpt lat="45.76328" lon="4.81699">
        <ele>282.2</ele>
        <time>2015-06-14T07:35:40.000Z</time>
      </trkpt>
      <trkpt lat="45.76327" lon="4.81695">
        <ele>282.4</ele>
        <time>2015-06-14T07:35:41.000Z</time>
      </trkpt>
      <trkpt lat="45.76323" lon="4.81679">
        <ele>282.5</ele>
        <time>2015-06-14T07:35:47.000Z</time>
      </trkpt>
      <trkpt lat="45.7632" lon="4.81665">
        <ele>282.9</ele>
        <time>2015-06-14T07:35:53.000Z</time>
      </trkpt>
      <trkpt lat="45.76317" lon="4.81651">
        <ele>283.8</ele>
        <time>2015-06-14T07:35:58.000Z</time>
      </trkpt>
      <trkpt lat="45.76315" lon="4.81636">
        <ele>284.6</ele>
        <time>2015-06-14T07:36:04.000Z</time>
      </trkpt>
      <trkpt lat="45.76314" lon="4.81626">
        <ele>284.6</ele>
        <time>2015-06-14T07:36:07.000Z</time>
      </trkpt>
      <trkpt lat="45.76313" lon="4.81608">
        <ele>284.4</ele>
        <time>2015-06-14T07:36:13.000Z</time>
      </trkpt>
      <trkpt lat="45.76311" lon="4.81592">
        <ele>284.8</ele>
        <time>2015-06-14T07:36:18.000Z</time>
      </trkpt>
      <trkpt lat="45.76311" lon="4.8159">
        <ele>284.9</ele>
        <time>2015-06-14T07:36:19.000Z</time>
      </trkpt>
      <trkpt lat="45.76307" lon="4.81565">
        <ele>285.1</ele>
        <time>2015-06-14T07:36:28.000Z</time>
      </trkpt>
      <trkpt lat="45.76305" lon="4.81548">
        <ele>284.8</ele>
        <time>2015-06-14T07:36:34.000Z</time>
      </trkpt>
      <trkpt lat="45.76303" lon="4.81532">
        <ele>284.6</ele>
        <time>2015-06-14T07:36:39.000Z</time>
      </trkpt>
      <trkpt lat="45.76302" lon="4.81509">
        <ele>285.3</ele>
        <time>2015-06-14T07:36:46.000Z</time>
      </trkpt>
      <trkpt lat="45.76299" lon="4.81488">
        <ele>286.3</ele>
        <time>2015-06-14T07:36:53.000Z</time>
      </trkpt>
      <trkpt lat="45.76297" lon="4.81473">
        <ele>286.9</ele>
        <time>2015-06-14T07:36:58.000Z</time>
      </trkpt>
      <trkpt lat="45.76294" lon="4.81454">
        <ele>287.6</ele>
        <time>2015-06-14T07:37:04.000Z</time>
      </trkpt>
      <trkpt lat="45.76294" lon="4.81442">
        <ele>287.9</ele>
        <time>2015-06-14T07:37:08.000Z</time>
      </trkpt>
      <trkpt lat="45.76299" lon="4.81428">
        <ele>287.5</ele>
        <time>2015-06-14T07:37:13.000Z</time>
      </trkpt>
      <trkpt lat="45.76303" lon="4.81411">
        <ele>287</ele>
        <time>2015-06-14T07:37:19.000Z</time>
      </trkpt>
      <trkpt lat="45.76301" lon="4.81392">
        <ele>286.4</ele>
        <time>2015-06-14T07:37:25.000Z</time>
      </trkpt>
      <trkpt lat="45.76298" lon="4.81373">
        <ele>286.1</ele>
        <time>2015-06-14T07:37:31.000Z</time>
      </trkpt>
      <trkpt lat="45.76295" lon="4.81352">
        <ele>286.3</ele>
        <time>2015-06-14T07:37:38.000Z</time>
      </trkpt>
      <trkpt lat="45.76296" lon="4.8135">
        <ele>286.3</ele>
        <time>2015-06-14T07:37:39.000Z</time>
      </trkpt>
      <trkpt lat="45.76305" lon="4.8134">
        <ele>285.8</ele>
        <time>2015-06-14T07:37:44.000Z</time>
      </trkpt>
      <trkpt lat="45.76311" lon="4.81334">
        <ele>285.6</ele>
        <time>2015-06-14T07:37:47.000Z</time>
      </trkpt>
      <trkpt lat="45.76322" lon="4.81324">
        <ele>284.4</ele>
        <time>2015-06-14T07:37:53.000Z</time>
      </trkpt>
      <trkpt lat="45.76334" lon="4.81325">
        <ele>283.7</ele>
        <time>2015-06-14T07:37:58.000Z</time>
      </trkpt>
      <trkpt lat="45.76347" lon="4.81329">
        <ele>282.9</ele>
        <time>2015-06-14T07:38:04.000Z</time>
      </trkpt>
      <trkpt lat="45.76361" lon="4.81331">
        <ele>282</ele>
        <time>2015-06-14T07:38:10.000Z</time>
      </trkpt>
      <trkpt lat="45.76371" lon="4.81328">
        <ele>281.2</ele>
        <time>2015-06-14T07:38:14.000Z</time>
      </trkpt>
      <trkpt lat="45.76381" lon="4.81321">
        <ele>280.2</ele>
        <time>2015-06-14T07:38:19.000Z</time>
      </trkpt>
      <trkpt lat="45.76387" lon="4.81313">
        <ele>279.4</ele>
        <time>2015-06-14T07:38:23.000Z</time>
      </trkpt>
      <trkpt lat="45.76397" lon="4.81298">
        <ele>277.2</ele>
        <time>2015-06-14T07:38:29.000Z</time>
      </trkpt>
      <trkpt lat="45.7641" lon="4.81287">
        <ele>275.6</ele>
        <time>2015-06-14T07:38:35.000Z</time>
      </trkpt>
      <trkpt lat="45.76421" lon="4.81279">
        <ele>274.7</ele>
        <time>2015-06-14T07:38:40.000Z</time>
      </trkpt>
      <trkpt lat="45.76427" lon="4.81273">
        <ele>273.8</ele>
        <time>2015-06-14T07:38:43.000Z</time>
      </trkpt>
      <trkpt lat="45.76437" lon="4.81257">
        <ele>273.1</ele>
        <time>2015-06-14T07:38:50.000Z</time>
      </trkpt>
      <trkpt lat="45.76438" lon="4.81255">
        <ele>273.1</ele>
        <time>2015-06-14T07:38:51.000Z</time>
      </trkpt>
      <trkpt lat="45.76445" lon="4.81245">
        <ele>272.7</ele>
        <time>2015-06-14T07:38:55.000Z</time>
      </trkpt>
      <trkpt lat="45.76453" lon="4.81232">
        <ele>272.4</ele>
        <time>2015-06-14T07:39:00.000Z</time>
      </trkpt>
      <trkpt lat="45.76461" lon="4.8122">
        <ele>271.6</ele>
        <time>2015-06-14T07:39:06.000Z</time>
      </trkpt>
      <trkpt lat="45.76469" lon="4.8121">
        <ele>270</ele>
        <time>2015-06-14T07:39:11.000Z</time>
      </trkpt>
      <trkpt lat="45.76475" lon="4.81195">
        <ele>269.3</ele>
        <time>2015-06-14T07:39:16.000Z</time>
      </trkpt>
      <trkpt lat="45.7648" lon="4.81176">
        <ele>267.9</ele>
        <time>2015-06-14T07:39:22.000Z</time>
      </trkpt>
      <trkpt lat="45.76486" lon="4.81157">
        <ele>266.7</ele>
        <time>2015-06-14T07:39:28.000Z</time>
      </trkpt>
      <trkpt lat="45.76491" lon="4.8114">
        <ele>266</ele>
        <time>2015-06-14T07:39:33.000Z</time>
      </trkpt>
      <trkpt lat="45.76496" lon="4.81124">
        <ele>264.9</ele>
        <time>2015-06-14T07:39:38.000Z</time>
      </trkpt>
      <trkpt lat="45.76501" lon="4.81112">
        <ele>263.6</ele>
        <time>2015-06-14T07:39:43.000Z</time>
      </trkpt>
      <trkpt lat="45.76506" lon="4.81098">
        <ele>263.4</ele>
        <time>2015-06-14T07:39:48.000Z</time>
      </trkpt>
      <trkpt lat="45.76509" lon="4.8109">
        <ele>263.1</ele>
        <time>2015-06-14T07:39:51.000Z</time>
      </trkpt>
      <trkpt lat="45.76515" lon="4.81078">
        <ele>263.1</ele>
        <time>2015-06-14T07:39:55.000Z</time>
      </trkpt>
      <trkpt lat="45.76517" lon="4.81076">
        <ele>262.9</ele>
        <time>2015-06-14T07:39:56.000Z</time>
      </trkpt>
      <trkpt lat="45.76527" lon="4.81068">
        <ele>261.4</ele>
        <time>2015-06-14T07:40:00.000Z</time>
      </trkpt>
      <trkpt lat="45.76542" lon="4.81056">
        <ele>259</ele>
        <time>2015-06-14T07:40:06.000Z</time>
      </trkpt>
      <trkpt lat="45.76558" lon="4.81042">
        <ele>258.3</ele>
        <time>2015-06-14T07:40:12.000Z</time>
      </trkpt>
      <trkpt lat="45.76572" lon="4.81031">
        <ele>257.4</ele>
        <time>2015-06-14T07:40:17.000Z</time>
      </trkpt>
      <trkpt lat="45.76584" lon="4.81019">
        <ele>254.9</ele>
        <time>2015-06-14T07:40:22.000Z</time>
      </trkpt>
      <trkpt lat="45.76594" lon="4.8101">
        <ele>253.8</ele>
        <time>2015-06-14T07:40:26.000Z</time>
      </trkpt>
      <trkpt lat="45.76597" lon="4.81008">
        <ele>253.4</ele>
        <time>2015-06-14T07:40:27.000Z</time>
      </trkpt>
      <trkpt lat="45.76606" lon="4.81">
        <ele>253</ele>
        <time>2015-06-14T07:40:31.000Z</time>
      </trkpt>
      <trkpt lat="45.76616" lon="4.8099">
        <ele>252.5</ele>
        <time>2015-06-14T07:40:36.000Z</time>
      </trkpt>
      <trkpt lat="45.76628" lon="4.80983">
        <ele>251.1</ele>
        <time>2015-06-14T07:40:40.000Z</time>
      </trkpt>
      <trkpt lat="45.7664" lon="4.80973">
        <ele>249.8</ele>
        <time>2015-06-14T07:40:45.000Z</time>
      </trkpt>
      <trkpt lat="45.76643" lon="4.8097">
        <ele>249.7</ele>
        <time>2015-06-14T07:40:47.000Z</time>
      </trkpt>
      <trkpt lat="45.7665" lon="4.80962">
        <ele>249.9</ele>
        <time>2015-06-14T07:40:51.000Z</time>
      </trkpt>
      <trkpt lat="45.76661" lon="4.8095">
        <ele>249.5</ele>
        <time>2015-06-14T07:40:56.000Z</time>
      </trkpt>
      <trkpt lat="45.76672" lon="4.80944">
        <ele>248.6</ele>
        <time>2015-06-14T07:41:00.000Z</time>
      </trkpt>
      <trkpt lat="45.76681" lon="4.80938">
        <ele>249.7</ele>
        <time>2015-06-14T07:41:04.000Z</time>
      </trkpt>
      <trkpt lat="45.76692" lon="4.80932">
        <ele>250.5</ele>
        <time>2015-06-14T07:41:09.000Z</time>
      </trkpt>
      <trkpt lat="45.76703" lon="4.80932">
        <ele>249.7</ele>
        <time>2015-06-14T07:41:13.000Z</time>
      </trkpt>
      <trkpt lat="45.76718" lon="4.8093">
        <ele>249.3</ele>
        <time>2015-06-14T07:41:19.000Z</time>
      </trkpt>
      <trkpt lat="45.76737" lon="4.80936">
        <ele>245.6</ele>
        <time>2015-06-14T07:41:26.000Z</time>
      </trkpt>
      <trkpt lat="45.76748" lon="4.8094">
        <ele>243.8</ele>
        <time>2015-06-14T07:41:30.000Z</time>
      </trkpt>
      <trkpt lat="45.76762" lon="4.80947">
        <ele>241.5</ele>
        <time>2015-06-14T07:41:35.000Z</time>
      </trkpt>
      <trkpt lat="45.76775" lon="4.80951">
        <ele>240.2</ele>
        <time>2015-06-14T07:41:40.000Z</time>
      </trkpt>
      <trkpt lat="45.76792" lon="4.80953">
        <ele>239</ele>
        <time>2015-06-14T07:41:46.000Z</time>
      </trkpt>
      <trkpt lat="45.76808" lon="4.80957">
        <ele>237.8</ele>
        <time>2015-06-14T07:41:52.000Z</time>
      </trkpt>
      <trkpt lat="45.76818" lon="4.80959">
        <ele>237.1</ele>
        <time>2015-06-14T07:41:56.000Z</time>
      </trkpt>
      <trkpt lat="45.76834" lon="4.80962">
        <ele>235.9</ele>
        <time>2015-06-14T07:42:02.000Z</time>
      </trkpt>
      <trkpt lat="45.76847" lon="4.80967">
        <ele>235</ele>
        <time>2015-06-14T07:42:07.000Z</time>
      </trkpt>
      <trkpt lat="45.76855" lon="4.80965">
        <ele>234.5</ele>
        <time>2015-06-14T07:42:10.000Z</time>
      </trkpt>
      <trkpt lat="45.76867" lon="4.80964">
        <ele>233.6</ele>
        <time>2015-06-14T07:42:15.000Z</time>
      </trkpt>
      <trkpt lat="45.76878" lon="4.80965">
        <ele>232.8</ele>
        <time>2015-06-14T07:42:20.000Z</time>
      </trkpt>
      <trkpt lat="45.76908" lon="4.80983">
        <ele>230.4</ele>
        <time>2015-06-14T07:42:32.000Z</time>
      </trkpt>
      <trkpt lat="45.76918" lon="4.80996">
        <ele>229.1</ele>
        <time>2015-06-14T07:42:37.000Z</time>
      </trkpt>
      <trkpt lat="45.76933" lon="4.81006">
        <ele>227.5</ele>
        <time>2015-06-14T07:42:43.000Z</time>
      </trkpt>
      <trkpt lat="45.76946" lon="4.81008">
        <ele>226.3</ele>
        <time>2015-06-14T07:42:48.000Z</time>
      </trkpt>
      <trkpt lat="45.76954" lon="4.81009">
        <ele>225.6</ele>
        <time>2015-06-14T07:42:51.000Z</time>
      </trkpt>
      <trkpt lat="45.76973" lon="4.81004">
        <ele>225.1</ele>
        <time>2015-06-14T07:42:59.000Z</time>
      </trkpt>
      <trkpt lat="45.76986" lon="4.81002">
        <ele>223.9</ele>
        <time>2015-06-14T07:43:04.000Z</time>
      </trkpt>
      <trkpt lat="45.76999" lon="4.81">
        <ele>223.1</ele>
        <time>2015-06-14T07:43:09.000Z</time>
      </trkpt>
      <trkpt lat="45.77007" lon="4.80989">
        <ele>221.4</ele>
        <time>2015-06-14T07:43:14.000Z</time>
      </trkpt>
      <trkpt lat="45.77007" lon="4.80972">
        <ele>220.9</ele>
        <time>2015-06-14T07:43:19.000Z</time>
      </trkpt>
      <trkpt lat="45.77" lon="4.80956">
        <ele>220.8</ele>
        <time>2015-06-14T07:43:24.000Z</time>
      </trkpt>
      <trkpt lat="45.76992" lon="4.80942">
        <ele>220.9</ele>
        <time>2015-06-14T07:43:29.000Z</time>
      </trkpt>
      <trkpt lat="45.76989" lon="4.80934">
        <ele>220.1</ele>
        <time>2015-06-14T07:43:32.000Z</time>
      </trkpt>
      <trkpt lat="45.76996" lon="4.8092">
        <ele>217.1</ele>
        <time>2015-06-14T07:43:37.000Z</time>
      </trkpt>
      <trkpt lat="45.77004" lon="4.80921">
        <ele>216</ele>
        <time>2015-06-14T07:43:40.000Z</time>
      </trkpt>
      <trkpt lat="45.77019" lon="4.80929">
        <ele>215</ele>
        <time>2015-06-14T07:43:46.000Z</time>
      </trkpt>
      <trkpt lat="45.77031" lon="4.80935">
        <ele>214.5</ele>
        <time>2015-06-14T07:43:51.000Z</time>
      </trkpt>
      <trkpt lat="45.77034" lon="4.80936">
        <ele>214.4</ele>
        <time>2015-06-14T07:43:52.000Z</time>
      </trkpt>
      <trkpt lat="45.77043" lon="4.80932">
        <ele>212.5</ele>
        <time>2015-06-14T07:43:56.000Z</time>
      </trkpt>
      <trkpt lat="45.77055" lon="4.80931">
        <ele>210.7</ele>
        <time>2015-06-14T07:44:01.000Z</time>
      </trkpt>
      <trkpt lat="45.77066" lon="4.80935">
        <ele>210.5</ele>
        <time>2015-06-14T07:44:06.000Z</time>
      </trkpt>
      <trkpt lat="45.7708" lon="4.8094">
        <ele>210.6</ele>
        <time>2015-06-14T07:44:12.000Z</time>
      </trkpt>
      <trkpt lat="45.77093" lon="4.80942">
        <ele>209.7</ele>
        <time>2015-06-14T07:44:17.000Z</time>
      </trkpt>
      <trkpt lat="45.77106" lon="4.80944">
        <ele>209.2</ele>
        <time>2015-06-14T07:44:22.000Z</time>
      </trkpt>
      <trkpt lat="45.77125" lon="4.80947">
        <ele>207.3</ele>
        <time>2015-06-14T07:44:29.000Z</time>
      </trkpt>
      <trkpt lat="45.77141" lon="4.8095">
        <ele>205.6</ele>
        <time>2015-06-14T07:44:35.000Z</time>
      </trkpt>
      <trkpt lat="45.7715" lon="4.80951">
        <ele>204.6</ele>
        <time>2015-06-14T07:44:39.000Z</time>
      </trkpt>
      <trkpt lat="45.77156" lon="4.80952">
        <ele>204</ele>
        <time>2015-06-14T07:44:41.000Z</time>
      </trkpt>
      <trkpt lat="45.77169" lon="4.80955">
        <ele>203.4</ele>
        <time>2015-06-14T07:44:46.000Z</time>
      </trkpt>
      <trkpt lat="45.77182" lon="4.80957">
        <ele>203.6</ele>
        <time>2015-06-14T07:44:51.000Z</time>
      </trkpt>
      <trkpt lat="45.772" lon="4.80959">
        <ele>203.5</ele>
        <time>2015-06-14T07:44:58.000Z</time>
      </trkpt>
      <trkpt lat="45.77218" lon="4.8096">
        <ele>202.9</ele>
        <time>2015-06-14T07:45:05.000Z</time>
      </trkpt>
      <trkpt lat="45.77232" lon="4.80956">
        <ele>201.6</ele>
        <time>2015-06-14T07:45:11.000Z</time>
      </trkpt>
      <trkpt lat="45.77246" lon="4.80948">
        <ele>201.5</ele>
        <time>2015-06-14T07:45:17.000Z</time>
      </trkpt>
      <trkpt lat="45.77251" lon="4.80942">
        <ele>201.5</ele>
        <time>2015-06-14T07:45:20.000Z</time>
      </trkpt>
      <trkpt lat="45.7725" lon="4.80926">
        <ele>200</ele>
        <time>2015-06-14T07:45:25.000Z</time>
      </trkpt>
      <trkpt lat="45.77238" lon="4.80923">
        <ele>199.2</ele>
        <time>2015-06-14T07:45:30.000Z</time>
      </trkpt>
      <trkpt lat="45.77236" lon="4.80923">
        <ele>199.2</ele>
        <time>2015-06-14T07:45:31.000Z</time>
      </trkpt>
      <trkpt lat="45.77226" lon="4.80927">
        <ele>199.2</ele>
        <time>2015-06-14T07:45:35.000Z</time>
      </trkpt>
      <trkpt lat="45.77214" lon="4.80931">
        <ele>199.1</ele>
        <time>2015-06-14T07:45:40.000Z</time>
      </trkpt>
      <trkpt lat="45.77203" lon="4.80934">
        <ele>199.1</ele>
        <time>2015-06-14T07:45:44.000Z</time>
      </trkpt>
      <trkpt lat="45.77193" lon="4.80936">
        <ele>199.2</ele>
        <time>2015-06-14T07:45:48.000Z</time>
      </trkpt>
      <trkpt lat="45.77182" lon="4.80936">
        <ele>198.6</ele>
        <time>2015-06-14T07:45:53.000Z</time>
      </trkpt>
      <trkpt lat="45.77178" lon="4.80936">
        <ele>198.3</ele>
        <time>2015-06-14T07:45:55.000Z</time>
      </trkpt>
      <trkpt lat="45.77167" lon="4.80938">
        <ele>198.4</ele>
        <time>2015-06-14T07:45:59.000Z</time>
      </trkpt>
      <trkpt lat="45.77151" lon="4.80933">
        <ele>198.5</ele>
        <time>2015-06-14T07:46:05.000Z</time>
      </trkpt>
      <trkpt lat="45.77133" lon="4.80929">
        <ele>197.4</ele>
        <time>2015-06-14T07:46:12.000Z</time>
      </trkpt>
      <trkpt lat="45.7712" lon="4.80925">
        <ele>196.3</ele>
        <time>2015-06-14T07:46:17.000Z</time>
      </trkpt>
      <trkpt lat="45.7711" lon="4.80917">
        <ele>191.9</ele>
        <time>2015-06-14T07:46:22.000Z</time>
      </trkpt>
      <trkpt lat="45.77107" lon="4.80902">
        <ele>190.5</ele>
        <time>2015-06-14T07:46:27.000Z</time>
      </trkpt>
      <trkpt lat="45.77109" lon="4.80887">
        <ele>188</ele>
        <time>2015-06-14T07:46:32.000Z</time>
      </trkpt>
      <trkpt lat="45.77111" lon="4.80878">
        <ele>186.4</ele>
        <time>2015-06-14T07:46:36.000Z</time>
      </trkpt>
      <trkpt lat="45.77115" lon="4.80873">
        <ele>185.6</ele>
        <time>2015-06-14T07:46:39.000Z</time>
      </trkpt>
      <trkpt lat="45.77122" lon="4.8086">
        <ele>183.4</ele>
        <time>2015-06-14T07:46:45.000Z</time>
      </trkpt>
      <trkpt lat="45.77123" lon="4.80857">
        <ele>182.9</ele>
        <time>2015-06-14T07:46:46.000Z</time>
      </trkpt>
      <trkpt lat="45.77132" lon="4.80841">
        <ele>179.9</ele>
        <time>2015-06-14T07:46:52.000Z</time>
      </trkpt>
      <trkpt lat="45.77134" lon="4.80838">
        <ele>179.2</ele>
        <time>2015-06-14T07:46:53.000Z</time>
      </trkpt>
      <trkpt lat="45.7714" lon="4.80822">
        <ele>177.2</ele>
        <time>2015-06-14T07:46:58.000Z</time>
      </trkpt>
      <trkpt lat="45.77142" lon="4.80813">
        <ele>176.4</ele>
        <time>2015-06-14T07:47:02.000Z</time>
      </trkpt>
      <trkpt lat="45.77141" lon="4.80799">
        <ele>176.1</ele>
        <time>2015-06-14T07:47:07.000Z</time>
      </trkpt>
      <trkpt lat="45.77137" lon="4.80797">
        <ele>176.4</ele>
        <time>2015-06-14T07:47:09.000Z</time>
      </trkpt>
      <trkpt lat="45.77132" lon="4.80796">
        <ele>176.7</ele>
        <time>2015-06-14T07:47:11.000Z</time>
      </trkpt>
      <trkpt lat="45.7712" lon="4.80793">
        <ele>177.2</ele>
        <time>2015-06-14T07:47:15.000Z</time>
      </trkpt>
      <trkpt lat="45.77103" lon="4.80789">
        <ele>177.6</ele>
        <time>2015-06-14T07:47:22.000Z</time>
      </trkpt>
      <trkpt lat="45.77095" lon="4.80775">
        <ele>177.6</ele>
        <time>2015-06-14T07:47:27.000Z</time>
      </trkpt>
      <trkpt lat="45.77095" lon="4.80771">
        <ele>177.6</ele>
        <time>2015-06-14T07:47:28.000Z</time>
      </trkpt>
      <trkpt lat="45.77095" lon="4.80762">
        <ele>177.6</ele>
        <time>2015-06-14T07:47:31.000Z</time>
      </trkpt>
      <trkpt lat="45.77092" lon="4.80742">
        <ele>177.5</ele>
        <time>2015-06-14T07:47:37.000Z</time>
      </trkpt>
      <trkpt lat="45.77079" lon="4.80729">
        <ele>177.4</ele>
        <time>2015-06-14T07:47:43.000Z</time>
      </trkpt>
      <trkpt lat="45.77067" lon="4.80732">
        <ele>177.9</ele>
        <time>2015-06-14T07:47:48.000Z</time>
      </trkpt>
      <trkpt lat="45.77065" lon="4.80732">
        <ele>178</ele>
        <time>2015-06-14T07:47:49.000Z</time>
      </trkpt>
      <trkpt lat="45.77051" lon="4.80734">
        <ele>178.4</ele>
        <time>2015-06-14T07:47:55.000Z</time>
      </trkpt>
      <trkpt lat="45.77039" lon="4.80735">
        <ele>178.5</ele>
        <time>2015-06-14T07:48:00.000Z</time>
      </trkpt>
      <trkpt lat="45.77038" lon="4.80736">
        <ele>178.5</ele>
        <time>2015-06-14T07:48:01.000Z</time>
      </trkpt>
      <trkpt lat="45.77032" lon="4.80746">
        <ele>178.9</ele>
        <time>2015-06-14T07:48:05.000Z</time>
      </trkpt>
      <trkpt lat="45.77028" lon="4.80758">
        <ele>179</ele>
        <time>2015-06-14T07:48:10.000Z</time>
      </trkpt>
      <trkpt lat="45.77015" lon="4.80763">
        <ele>179</ele>
        <time>2015-06-14T07:48:16.000Z</time>
      </trkpt>
      <trkpt lat="45.77011" lon="4.80764">
        <ele>179</ele>
        <time>2015-06-14T07:48:18.000Z</time>
      </trkpt>
    </trkseg>
  </trk>
</gpx>